Weather at Columbia Metropolitan Airport

Public forecast

Using degrees Fahrenheit for public forecast. Weather courtesy of forecast.io.

Current aviation weather report (METAR) for Columbia Metropolitan Airport

Retrieved 2020/10/23 22:56 UTC (39 minutes ago):

KCAE 232256Z 10004KT 10SM FEW050 25/17 A3004 RMK AO2 SLPNO T02500167

Aviation forecast (TAF) for Columbia Metropolitan Airport

Retrieved 2020/10/23 18:39 UTC (5 hours ago):

TAF KCAE 231737Z 2318/2418 11005KT P6SM SCT035 FM240000 VRB03KT P6SM FEW035 FM240900 00000KT 3SM BR FEW006 TEMPO 2410/2413 1SM BR BKN006 FM241400 VRB03KT P6SM FEW015 SCT030